Time;durP1;ratioP1;P1;durP2;ratioP2;P2;SDS_P1;SDS_P2;PMS_P1;PMS_P2;Temp;Humidity;BMP_temperature;BMP_pressure;BME280_temperature;BME280_humidity;BME280_pressure;Samples;Min_cycle;Max_cycle;Signal;HPM_P1;HPM_P2
2021/11/14 00:01:22;;;;;;;17.70;10.57;;;4.20;96.30;;;;;;5011606;28;20193;-82
2021/11/14 00:03:48;;;;;;;13.97;9.60;;;4.20;96.30;;;;;;5013574;28;20415;-81
2021/11/14 00:06:15;;;;;;;15.10;10.27;;;4.30;96.30;;;;;;5011946;28;20486;-82
2021/11/14 00:08:41;;;;;;;16.63;10.37;;;4.20;96.30;;;;;;5011594;28;20413;-82
2021/11/14 00:11:13;;;;;;;17.97;11.17;;;4.30;96.30;;;;;;5010997;28;20446;-81
2021/11/14 00:13:40;;;;;;;10.90;9.03;;;4.20;96.30;;;;;;5011562;28;20169;-81
2021/11/14 00:16:07;;;;;;;15.30;10.33;;;4.20;96.30;;;;;;5011509;28;20416;-82
2021/11/14 00:18:34;;;;;;;11.30;8.90;;;4.20;96.30;;;;;;5011604;28;20408;-82
2021/11/14 00:21:00;;;;;;;12.20;8.77;;;4.20;96.30;;;;;;5012226;28;20439;-81
2021/11/14 00:23:26;;;;;;;11.67;9.40;;;4.20;96.30;;;;;;5011556;28;20423;-82
2021/11/14 00:25:51;;;;;;;14.10;8.40;;;4.30;96.30;;;;;;5012417;28;20836;-82
2021/11/14 00:28:17;;;;;;;12.20;8.77;;;4.30;96.30;;;;;;5011450;28;20173;-82
2021/11/14 00:30:44;;;;;;;13.13;9.90;;;4.30;96.30;;;;;;5011189;28;20546;-81
2021/11/14 00:33:11;;;;;;;11.47;9.60;;;4.20;96.30;;;;;;5010923;28;20204;-82
2021/11/14 00:35:37;;;;;;;13.80;10.63;;;4.20;96.30;;;;;;5012759;28;20753;-82
2021/11/14 00:38:02;;;;;;;11.37;8.73;;;4.10;96.30;;;;;;5011616;28;20427;-82
2021/11/14 00:40:31;;;;;;;14.13;9.57;;;4.10;96.30;;;;;;5012819;28;20601;-81
2021/11/14 00:42:58;;;;;;;14.10;10.27;;;4.10;96.30;;;;;;5011009;28;20338;-81
2021/11/14 00:45:25;;;;;;;14.47;10.93;;;4.10;96.30;;;;;;5011473;28;20443;-81
2021/11/14 00:47:51;;;;;;;12.80;9.30;;;4.10;96.30;;;;;;5011427;28;20422;-81
2021/11/14 00:50:17;;;;;;;14.97;10.50;;;4.00;96.30;;;;;;5017438;28;20771;-81
2021/11/14 00:52:44;;;;;;;10.63;8.60;;;4.00;96.30;;;;;;5017113;28;20438;-82
2021/11/14 00:55:16;;;;;;;13.23;8.97;;;4.10;96.30;;;;;;5017879;28;20176;-82
2021/11/14 00:57:41;;;;;;;10.83;8.27;;;4.20;96.30;;;;;;5017380;28;20417;-81
2021/11/14 05:01:03;;;;;;;7.63;6.40;;;4.80;96.30;;;;;;5797393;23;20868;-81
2021/11/14 05:03:28;;;;;;;8.47;7.30;;;4.70;96.30;;;;;;5015842;28;20412;-81
2021/11/14 05:05:57;;;;;;;8.63;6.40;;;4.70;96.30;;;;;;5015966;28;20463;-82
2021/11/14 05:08:24;;;;;;;9.70;6.70;;;4.60;96.30;;;;;;5015697;28;20210;-81
2021/11/14 05:10:50;;;;;;;8.83;7.10;;;4.50;96.30;;;;;;5015758;28;20436;-81
2021/11/14 05:13:17;;;;;;;9.53;7.70;;;4.50;96.30;;;;;;5016278;28;20802;-82
2021/11/14 05:15:42;;;;;;;8.90;7.10;;;4.50;96.30;;;;;;5015354;28;20427;-81
2021/11/14 05:18:08;;;;;;;10.73;8.00;;;4.40;96.30;;;;;;5016660;28;20506;-82
2021/11/14 05:20:34;;;;;;;13.30;8.00;;;4.40;96.30;;;;;;5016748;28;20169;-82
2021/11/14 05:23:00;;;;;;;10.07;7.33;;;4.40;96.30;;;;;;5016066;28;20173;-81
2021/11/14 05:25:26;;;;;;;8.93;7.50;;;4.40;96.30;;;;;;5017997;28;20818;-81
2021/11/14 05:27:51;;;;;;;12.23;8.13;;;4.40;96.30;;;;;;5016973;28;20196;-81
2021/11/14 05:30:17;;;;;;;10.00;7.57;;;4.40;96.30;;;;;;5017606;28;20335;-81
2021/11/14 05:32:42;;;;;;;8.00;6.97;;;4.40;96.30;;;;;;5017245;28;20179;-81
2021/11/14 05:35:09;;;;;;;8.23;7.10;;;4.50;96.30;;;;;;5018994;28;20177;-82
2021/11/14 05:37:36;;;;;;;9.20;7.53;;;4.50;96.30;;;;;;5021457;28;20534;-81
2021/11/14 05:40:04;;;;;;;9.30;7.27;;;4.40;96.30;;;;;;5021638;28;20428;-81
2021/11/14 05:42:29;;;;;;;9.17;6.70;;;4.40;96.30;;;;;;5021551;28;20530;-81
2021/11/14 05:44:55;;;;;;;8.43;6.50;;;4.30;96.30;;;;;;5024329;28;20486;-81
2021/11/14 05:47:20;;;;;;;10.80;7.57;;;4.30;96.30;;;;;;5022927;28;20195;-81
2021/11/14 05:49:46;;;;;;;8.20;6.07;;;4.20;96.30;;;;;;5022707;28;20204;-81
2021/11/14 05:52:12;;;;;;;9.10;7.27;;;4.20;96.30;;;;;;5021840;28;20197;-81
2021/11/14 05:54:37;;;;;;;7.47;6.27;;;4.20;96.30;;;;;;5021388;28;20188;-81
2021/11/14 05:57:03;;;;;;;8.47;7.10;;;4.10;96.30;;;;;;5022603;28;20173;-81
2021/11/14 05:59:40;;;;;;;9.23;6.73;;;4.10;96.30;;;;;;5021101;28;20703;-80
2021/11/14 06:02:13;;;;;;;11.90;6.90;;;4.10;96.30;;;;;;5021297;28;20223;-81
2021/11/14 06:07:25;;;;;;;10.13;7.30;;;4.10;96.30;;;;;;5023774;28;20419;-82
2021/11/14 06:09:50;;;;;;;8.00;6.50;;;4.10;96.30;;;;;;5022407;28;20404;-81
2021/11/14 06:12:16;;;;;;;8.17;6.67;;;4.20;96.30;;;;;;5020443;28;20431;-81
2021/11/14 06:14:41;;;;;;;7.93;6.50;;;4.20;96.30;;;;;;5024387;28;20207;-81
2021/11/14 06:17:07;;;;;;;10.40;7.20;;;4.10;96.30;;;;;;5023861;28;20683;-81
2021/11/14 06:19:33;;;;;;;7.97;6.53;;;4.10;96.30;;;;;;5026532;28;20181;-81
2021/11/14 06:21:58;;;;;;;9.83;7.30;;;4.10;96.30;;;;;;5027431;28;20220;-81
2021/11/14 06:24:24;;;;;;;10.90;7.10;;;4.10;96.30;;;;;;5028374;28;20637;-82
2021/11/14 06:26:49;;;;;;;10.73;7.50;;;4.10;96.30;;;;;;5017423;28;20177;-80
2021/11/14 06:29:15;;;;;;;9.80;7.00;;;4.10;96.30;;;;;;5015820;28;20180;-81
2021/11/14 06:31:40;;;;;;;7.80;6.30;;;4.10;96.30;;;;;;5016749;28;20601;-81
2021/11/14 06:34:06;;;;;;;8.37;6.90;;;4.20;96.30;;;;;;5016069;28;20192;-82
2021/11/14 06:36:33;;;;;;;9.27;7.20;;;4.20;96.30;;;;;;5016533;28;20218;-82
2021/11/14 06:38:59;;;;;;;8.10;6.80;;;4.20;96.30;;;;;;5015488;28;20272;-81
2021/11/14 06:41:24;;;;;;;9.90;6.90;;;4.20;96.30;;;;;;5016754;28;20439;-81
2021/11/14 06:43:50;;;;;;;9.00;7.20;;;4.20;96.30;;;;;;5014265;28;20527;-82
2021/11/14 06:46:16;;;;;;;8.00;6.20;;;4.30;96.30;;;;;;5013629;28;20635;-82
2021/11/14 06:48:41;;;;;;;8.00;7.00;;;4.30;96.30;;;;;;5013594;28;20264;-83
2021/11/14 06:51:07;;;;;;;11.60;6.70;;;4.30;96.30;;;;;;5012727;28;20205;-83
2021/11/14 06:53:32;;;;;;;9.30;7.90;;;4.40;96.30;;;;;;5013501;28;20176;-82
2021/11/14 06:55:58;;;;;;;9.73;8.60;;;4.50;96.30;;;;;;5014421;28;20307;-78
2021/11/14 06:58:23;;;;;;;10.30;7.70;;;4.50;96.30;;;;;;5012504;28;20177;-78
2021/11/14 07:00:50;;;;;;;10.70;7.20;;;4.60;96.30;;;;;;5013643;28;20209;-78
2021/11/14 07:03:16;;;;;;;10.77;7.67;;;4.60;96.30;;;;;;5013352;28;20164;-77
2021/11/14 07:05:42;;;;;;;9.40;7.37;;;4.70;96.30;;;;;;5013257;28;20456;-77
2021/11/14 07:08:08;;;;;;;11.93;7.10;;;4.80;96.30;;;;;;5013827;28;20545;-77
2021/11/14 07:10:34;;;;;;;10.90;7.70;;;4.90;96.30;;;;;;5012314;28;20177;-78
2021/11/14 07:12:59;;;;;;;10.50;8.10;;;5.00;96.30;;;;;;5011802;28;20423;-76
2021/11/14 07:15:25;;;;;;;8.53;7.43;;;5.00;96.30;;;;;;5013387;28;20185;-77
2021/11/14 07:17:51;;;;;;;8.00;7.00;;;5.10;96.30;;;;;;5013505;28;20204;-76
2021/11/14 07:20:17;;;;;;;9.30;7.90;;;5.10;96.30;;;;;;5013503;28;20184;-77
2021/11/14 07:22:44;;;;;;;9.13;7.50;;;5.20;96.30;;;;;;5011813;28;20549;-75
2021/11/14 07:25:15;;;;;;;10.27;8.73;;;5.20;96.30;;;;;;5013312;28;20538;-76
2021/11/14 07:27:45;;;;;;;15.97;10.63;;;5.20;96.30;;;;;;5013356;28;20407;-77
2021/11/14 07:30:12;;;;;;;12.60;9.50;;;5.30;96.30;;;;;;5012108;28;20423;-77
2021/11/14 07:32:40;;;;;;;15.40;9.97;;;5.20;96.30;;;;;;5012820;28;20475;-78
2021/11/14 07:35:10;;;;;;;9.63;7.30;;;5.30;96.30;;;;;;5012168;28;20419;-80
2021/11/14 07:37:36;;;;;;;8.70;6.57;;;5.30;96.30;;;;;;5013633;28;20763;-78
2021/11/14 07:40:02;;;;;;;7.97;7.13;;;5.30;96.30;;;;;;5013622;28;20412;-79
2021/11/14 07:42:28;;;;;;;7.83;6.40;;;5.30;96.30;;;;;;5012514;28;20208;-79
2021/11/14 07:44:53;;;;;;;9.63;6.90;;;5.40;96.30;;;;;;5013025;28;20491;-78
2021/11/14 07:47:19;;;;;;;9.87;7.50;;;5.40;96.30;;;;;;5011848;28;20181;-78
2021/11/14 07:49:44;;;;;;;11.77;8.07;;;5.40;96.30;;;;;;5011876;28;20268;-79
2021/11/14 07:52:10;;;;;;;8.53;7.70;;;5.50;96.30;;;;;;5012476;28;20188;-79
2021/11/14 07:54:36;;;;;;;11.90;8.17;;;5.50;96.30;;;;;;5012488;28;20172;-79
2021/11/14 07:57:01;;;;;;;14.57;8.50;;;5.60;96.30;;;;;;5011819;28;20276;-79
2021/11/14 07:59:27;;;;;;;9.43;8.03;;;5.80;96.30;;;;;;5027854;28;20181;-79
2021/11/14 08:01:52;;;;;;;11.20;9.07;;;5.90;96.30;;;;;;5012642;28;20216;-79
2021/11/14 08:04:18;;;;;;;11.17;8.80;;;5.80;96.30;;;;;;5013379;28;20498;-82
2021/11/14 08:06:44;;;;;;;12.27;8.90;;;5.90;96.30;;;;;;5028137;28;20238;-77
2021/11/14 08:09:09;;;;;;;11.80;7.83;;;6.10;96.30;;;;;;5012980;28;20277;-77
2021/11/14 08:11:35;;;;;;;10.13;6.80;;;6.20;96.30;;;;;;5027489;28;20197;-78
2021/11/14 08:14:00;;;;;;;8.50;7.10;;;6.40;96.30;;;;;;5012853;28;20196;-78
2021/11/14 08:16:26;;;;;;;8.43;6.90;;;6.60;96.30;;;;;;5027738;28;20652;-78
2021/11/14 08:18:51;;;;;;;9.60;6.70;;;6.80;96.30;;;;;;5027988;28;20267;-79
2021/11/14 08:21:17;;;;;;;8.13;6.60;;;7.00;96.30;;;;;;5028056;28;20578;-78
2021/11/14 08:23:43;;;;;;;6.80;5.87;;;7.10;96.30;;;;;;5012897;28;20617;-78
2021/11/14 08:26:08;;;;;;;6.60;6.00;;;7.10;96.30;;;;;;5013286;28;20233;-80
2021/11/14 08:28:34;;;;;;;8.90;6.73;;;7.30;96.30;;;;;;5017728;28;20173;-81
2021/11/14 08:30:59;;;;;;;8.87;6.80;;;7.30;96.30;;;;;;5030029;28;20193;-79
2021/11/14 08:33:25;;;;;;;18.20;6.37;;;7.10;96.30;;;;;;5030657;28;20177;-79
2021/11/14 08:35:51;;;;;;;8.00;6.30;;;7.10;96.30;;;;;;5031789;28;20184;-80
2021/11/14 08:38:17;;;;;;;6.60;5.70;;;7.10;96.30;;;;;;5032468;28;20477;-80
2021/11/14 08:40:43;;;;;;;7.23;6.50;;;7.20;96.30;;;;;;5012413;28;20602;-79
2021/11/14 08:43:09;;;;;;;8.13;6.07;;;7.20;96.30;;;;;;4996328;28;20243;-80
2021/11/14 08:45:35;;;;;;;7.17;6.47;;;7.40;96.30;;;;;;5012550;28;20813;-79
2021/11/14 08:48:02;;;;;;;6.80;6.10;;;7.50;96.30;;;;;;5033954;28;20211;-79
2021/11/14 08:50:29;;;;;;;6.93;6.23;;;7.70;96.30;;;;;;5034122;28;20465;-79
2021/11/14 08:52:55;;;;;;;7.33;6.50;;;7.70;96.30;;;;;;5033997;28;20407;-80
2021/11/14 08:55:23;;;;;;;7.53;6.40;;;7.70;96.30;;;;;;5034230;28;20415;-79
2021/11/14 08:57:52;;;;;;;8.43;7.10;;;7.80;96.30;;;;;;5036750;28;20498;-79
2021/11/14 09:00:21;;;;;;;7.50;5.93;;;7.70;96.30;;;;;;5035452;28;20411;-80
2021/11/14 09:02:52;;;;;;;5.67;5.07;;;7.80;96.30;;;;;;5036384;28;20824;-79
2021/11/14 09:05:21;;;;;;;5.67;5.10;;;7.70;96.30;;;;;;5029077;28;20471;-79
2021/11/14 09:07:47;;;;;;;6.60;6.00;;;7.70;96.30;;;;;;5004996;28;20412;-80
2021/11/14 09:10:13;;;;;;;6.10;5.50;;;8.00;96.30;;;;;;5018768;28;20478;-79
2021/11/14 09:12:39;;;;;;;6.30;5.70;;;8.10;96.30;;;;;;5021532;28;20435;-79
2021/11/14 09:15:05;;;;;;;6.67;6.07;;;8.20;96.30;;;;;;5020635;28;20214;-78
2021/11/14 09:17:31;;;;;;;6.33;5.70;;;8.30;96.30;;;;;;5015475;28;20177;-78
2021/11/14 09:19:56;;;;;;;7.00;6.30;;;8.50;96.30;;;;;;5015914;28;20411;-78
2021/11/14 09:22:22;;;;;;;6.00;5.43;;;8.50;96.30;;;;;;5015423;28;20200;-78
2021/11/14 09:24:47;;;;;;;6.43;5.80;;;8.50;96.30;;;;;;5016054;28;20200;-78
2021/11/14 09:27:13;;;;;;;7.10;6.50;;;8.50;96.30;;;;;;5031190;28;20192;-79
2021/11/14 09:29:39;;;;;;;9.17;6.40;;;8.60;96.30;;;;;;5030940;28;20169;-77
2021/11/14 09:32:06;;;;;;;6.97;6.17;;;8.50;96.30;;;;;;5030188;28;20921;-79
2021/11/14 09:34:32;;;;;;;7.17;6.47;;;8.40;96.30;;;;;;5030790;28;20179;-78
2021/11/14 09:36:57;;;;;;;6.57;5.87;;;8.40;96.30;;;;;;5015366;28;20499;-78
2021/11/14 09:39:23;;;;;;;6.13;5.53;;;8.30;96.30;;;;;;5031865;28;20173;-78
2021/11/14 09:41:50;;;;;;;6.40;5.70;;;8.20;96.30;;;;;;5029693;28;20247;-78
2021/11/14 09:44:19;;;;;;;6.27;5.77;;;8.00;96.30;;;;;;5015044;28;20167;-78
2021/11/14 09:46:55;;;;;;;6.50;5.60;;;8.00;96.30;;;;;;5015098;28;20861;-79
2021/11/14 09:49:23;;;;;;;6.67;5.97;;;8.00;96.30;;;;;;5013869;28;20410;-79
2021/11/14 09:51:50;;;;;;;6.20;5.70;;;7.90;96.30;;;;;;5015187;28;20528;-78
2021/11/14 09:54:17;;;;;;;6.37;5.80;;;7.90;96.30;;;;;;5015674;28;20416;-78
2021/11/14 09:56:43;;;;;;;8.20;5.63;;;7.80;96.30;;;;;;5030358;28;20507;-78
2021/11/14 09:59:09;;;;;;;7.07;5.50;;;7.90;96.30;;;;;;5015000;28;20419;-79
2021/11/14 10:01:36;;;;;;;7.07;6.37;;;7.80;96.30;;;;;;5029950;28;20813;-78
2021/11/14 10:04:03;;;;;;;5.57;5.03;;;7.90;96.30;;;;;;5014953;28;20256;-78
2021/11/14 10:06:30;;;;;;;6.07;5.47;;;8.00;96.30;;;;;;5014927;28;20447;-78
2021/11/14 10:08:55;;;;;;;6.27;5.70;;;8.00;96.30;;;;;;5014836;28;20461;-77
2021/11/14 10:11:35;;;;;;;6.03;5.43;;;8.00;96.30;;;;;;5014472;28;20463;-80
2021/11/14 10:14:01;;;;;;;6.70;5.23;;;8.20;96.30;;;;;;5031873;28;20173;-80
2021/11/14 10:16:28;;;;;;;6.43;5.83;;;8.20;96.30;;;;;;5034070;28;20437;-80
2021/11/14 10:19:03;;;;;;;8.73;5.70;;;8.20;96.30;;;;;;5035806;28;20172;-80
2021/11/14 10:21:31;;;;;;;6.70;6.00;;;8.10;96.30;;;;;;5033976;28;21128;-79
2021/11/14 10:23:59;;;;;;;7.50;5.67;;;8.10;96.30;;;;;;5034388;28;20512;-80
2021/11/14 10:26:27;;;;;;;6.80;5.60;;;8.10;96.30;;;;;;5034597;28;20443;-80
2021/11/14 10:29:01;;;;;;;6.50;5.17;;;8.00;96.30;;;;;;5034589;28;20391;-79
2021/11/14 10:31:27;;;;;;;6.20;5.60;;;7.80;96.30;;;;;;5033052;28;20445;-80
2021/11/14 10:33:53;;;;;;;6.40;5.80;;;7.70;96.30;;;;;;5035584;28;20399;-79
2021/11/14 10:36:20;;;;;;;6.10;5.30;;;7.70;96.30;;;;;;5017858;28;20850;-78
2021/11/14 10:38:45;;;;;;;6.03;5.53;;;7.90;96.30;;;;;;5012236;28;20920;-78
2021/11/14 10:41:13;;;;;;;6.97;6.07;;;7.90;96.30;;;;;;5027050;28;20463;-78
2021/11/14 10:43:40;;;;;;;6.10;5.57;;;7.90;96.30;;;;;;5012344;28;20176;-77
2021/11/14 10:46:15;;;;;;;6.17;5.30;;;7.90;96.30;;;;;;5012588;28;20465;-78
2021/11/14 10:48:41;;;;;;;6.17;5.60;;;8.00;96.30;;;;;;5014165;28;20400;-78
2021/11/14 10:51:11;;;;;;;6.20;5.60;;;8.00;96.30;;;;;;5014203;28;20442;-79
2021/11/14 10:53:37;;;;;;;5.90;5.40;;;7.90;96.30;;;;;;5029764;28;20537;-79
2021/11/14 10:56:09;;;;;;;5.80;5.30;;;7.90;96.30;;;;;;5029554;28;20412;-79
2021/11/14 10:58:35;;;;;;;6.93;6.30;;;8.00;96.30;;;;;;5014967;28;20408;-81
2021/11/14 11:01:04;;;;;;;6.80;6.20;;;8.00;96.30;;;;;;5032195;28;20456;-83
2021/11/14 11:03:56;;;;;;;6.90;6.23;;;8.00;96.30;;;;;;5033587;28;20943;-84
2021/11/14 11:06:26;;;;;;;6.30;5.70;;;8.00;96.30;;;;;;5011477;28;21053;-81
2021/11/14 11:09:04;;;;;;;6.93;6.30;;;8.00;96.30;;;;;;5030700;28;20486;-80
2021/11/14 11:11:30;;;;;;;6.27;5.70;;;8.10;96.30;;;;;;5031754;28;20435;-82
2021/11/14 11:13:56;;;;;;;6.30;5.70;;;7.80;96.30;;;;;;5030227;28;20444;-81
2021/11/14 11:16:30;;;;;;;7.83;5.77;;;7.70;96.30;;;;;;5029212;28;20511;-82
2021/11/14 11:18:59;;;;;;;5.77;5.20;;;7.60;96.30;;;;;;5028781;28;20156;-81
2021/11/14 11:21:38;;;;;;;6.83;5.83;;;7.60;96.30;;;;;;5028337;28;20451;-81
2021/11/14 11:24:17;;;;;;;6.50;5.87;;;7.60;96.30;;;;;;5014067;28;20872;-82
2021/11/14 11:27:04;;;;;;;6.87;6.27;;;7.80;96.30;;;;;;5014442;28;20542;-82
2021/11/14 11:29:33;;;;;;;7.33;6.63;;;7.90;96.30;;;;;;5012887;28;20419;-82
2021/11/14 11:31:59;;;;;;;6.53;5.93;;;7.90;96.30;;;;;;5011743;28;20963;-82
2021/11/14 11:34:26;;;;;;;7.63;6.93;;;7.80;96.30;;;;;;5012941;28;20450;-82
2021/11/14 11:36:53;;;;;;;8.10;7.13;;;8.00;96.30;;;;;;5012527;28;20408;-82
2021/11/14 11:39:19;;;;;;;6.97;6.17;;;8.20;96.30;;;;;;5013716;28;20938;-82
2021/11/14 11:41:47;;;;;;;6.00;5.40;;;7.90;96.30;;;;;;5013029;28;20440;-81
2021/11/14 11:44:13;;;;;;;6.50;5.80;;;7.70;96.30;;;;;;5016730;28;20207;-81
2021/11/14 11:46:41;;;;;;;7.73;7.03;;;7.70;96.30;;;;;;5038804;28;20569;-80
2021/11/14 11:49:14;;;;;;;7.43;6.70;;;7.80;96.30;;;;;;5037306;28;20644;-80
2021/11/14 11:51:46;;;;;;;6.60;6.00;;;7.80;96.30;;;;;;5031778;28;20435;-80
2021/11/14 11:54:15;;;;;;;6.20;5.60;;;7.60;96.30;;;;;;5034273;28;20387;-79
2021/11/14 11:56:43;;;;;;;7.67;6.87;;;7.80;96.30;;;;;;5032752;28;20442;-80
2021/11/14 11:59:15;;;;;;;7.03;6.43;;;7.70;96.30;;;;;;5030613;28;20421;-81
2021/11/14 12:01:53;;;;;;;7.70;7.00;;;7.70;96.30;;;;;;5032578;28;20455;-81
2021/11/14 12:04:31;;;;;;;7.37;6.70;;;7.70;96.30;;;;;;5032625;28;20776;-80
2021/11/14 12:06:58;;;;;;;7.10;6.50;;;7.70;96.30;;;;;;5033435;28;20406;-80
2021/11/14 12:09:26;;;;;;;6.00;5.50;;;7.80;96.30;;;;;;5033236;28;20407;-81
2021/11/14 12:11:52;;;;;;;7.50;6.80;;;7.70;96.30;;;;;;5033141;28;20419;-81
2021/11/14 12:14:24;;;;;;;8.43;7.63;;;7.70;96.30;;;;;;5033132;28;20421;-80
2021/11/14 12:16:57;;;;;;;8.67;7.87;;;7.90;96.30;;;;;;5033023;28;20234;-80
2021/11/14 12:19:25;;;;;;;8.40;7.70;;;7.80;96.30;;;;;;5031795;28;20406;-80
2021/11/14 12:21:56;;;;;;;9.47;8.00;;;7.80;96.30;;;;;;5030550;28;20492;-81
2021/11/14 12:24:22;;;;;;;9.27;8.37;;;7.80;96.30;;;;;;5032969;28;20970;-81
2021/11/14 12:26:47;;;;;;;8.70;7.80;;;7.70;96.30;;;;;;5033226;28;20546;-81
2021/11/14 12:29:28;;;;;;;7.73;7.03;;;7.70;96.30;;;;;;5031761;28;20868;-81
2021/11/14 12:31:56;;;;;;;8.27;7.47;;;7.80;96.30;;;;;;5030703;28;20762;-81
2021/11/14 12:34:29;;;;;;;7.80;7.10;;;7.70;96.30;;;;;;5031656;28;20407;-81
2021/11/14 12:37:10;;;;;;;7.50;6.80;;;7.80;96.30;;;;;;5031330;28;20910;-82
2021/11/14 12:39:37;;;;;;;8.80;8.00;;;7.70;96.30;;;;;;5031520;28;20407;-81
2021/11/14 12:42:17;;;;;;;8.10;7.40;;;7.80;96.30;;;;;;5031761;28;20431;-82
2021/11/14 12:44:48;;;;;;;9.67;7.13;;;7.80;96.30;;;;;;4992658;28;20764;-83
2021/11/14 12:47:29;;;;;;;8.30;7.50;;;7.80;96.30;;;;;;4992334;28;20444;-83
2021/11/14 12:50:15;;;;;;;8.80;8.00;;;7.80;96.30;;;;;;4993041;28;20409;-83
2021/11/14 12:52:47;;;;;;;8.43;7.63;;;7.80;96.30;;;;;;4992559;28;20429;-82
2021/11/14 12:55:23;;;;;;;9.93;8.93;;;7.80;96.30;;;;;;4991775;28;20408;-82
2021/11/14 12:57:55;;;;;;;9.73;8.87;;;7.80;96.30;;;;;;4991716;28;20447;-82
2021/11/14 13:00:40;;;;;;;10.30;9.00;;;7.90;96.30;;;;;;4993163;28;20409;-82
2021/11/14 13:03:34;;;;;;;11.90;10.30;;;7.90;96.30;;;;;;4992902;28;20495;-82
2021/11/14 13:06:03;;;;;;;15.23;10.50;;;7.90;96.30;;;;;;4991979;28;20453;-82
2021/11/14 13:08:28;;;;;;;11.73;9.67;;;7.90;96.30;;;;;;4992385;28;20467;-82
2021/11/14 13:10:56;;;;;;;10.53;9.30;;;7.90;96.30;;;;;;4996712;28;20444;-82
2021/11/14 13:13:42;;;;;;;8.80;7.90;;;7.90;96.30;;;;;;5024907;28;20178;-83
2021/11/14 13:16:18;;;;;;;10.07;8.57;;;7.90;96.30;;;;;;5031069;28;20430;-81
2021/11/14 13:18:43;;;;;;;9.73;8.70;;;7.90;96.30;;;;;;5018382;28;20477;-82
2021/11/14 13:21:12;;;;;;;9.20;8.07;;;7.80;96.30;;;;;;5011083;28;20847;-82
2021/11/14 13:23:38;;;;;;;9.53;8.53;;;7.70;96.30;;;;;;5011420;28;20185;-82
2021/11/14 13:26:07;;;;;;;9.43;8.00;;;7.70;96.30;;;;;;5011610;28;20459;-80
2021/11/14 13:28:33;;;;;;;9.67;8.00;;;7.80;96.30;;;;;;5011638;28;20507;-79
2021/11/14 13:30:59;;;;;;;8.63;7.80;;;7.80;96.30;;;;;;5008669;28;20492;-81
2021/11/14 13:33:24;;;;;;;8.63;7.73;;;7.80;96.30;;;;;;5011411;28;20408;-80
2021/11/14 13:35:50;;;;;;;9.40;8.07;;;7.80;96.30;;;;;;5011256;28;20176;-81
2021/11/14 13:38:16;;;;;;;10.80;8.63;;;7.70;96.30;;;;;;5012285;28;20276;-82
2021/11/14 13:40:41;;;;;;;9.30;8.07;;;7.70;96.30;;;;;;5011031;28;20711;-81
2021/11/14 13:43:09;;;;;;;9.47;8.20;;;7.70;96.30;;;;;;5010145;28;20188;-81
2021/11/14 13:45:40;;;;;;;9.57;8.57;;;7.60;96.30;;;;;;5012456;28;20220;-81
2021/11/14 13:48:08;;;;;;;11.47;10.23;;;7.70;96.30;;;;;;5012438;28;20407;-81
2021/11/14 13:50:39;;;;;;;13.10;8.50;;;7.60;96.30;;;;;;5010815;28;20423;-83
2021/11/14 13:53:05;;;;;;;10.90;8.70;;;7.60;96.30;;;;;;5010089;28;20444;-83
2021/11/14 13:55:39;;;;;;;9.73;8.73;;;7.50;96.30;;;;;;5011991;28;20818;-81
2021/11/14 13:58:05;;;;;;;10.77;9.03;;;7.50;96.30;;;;;;5014604;28;20255;-81
2021/11/14 14:00:31;;;;;;;11.50;9.80;;;7.50;96.30;;;;;;5015320;28;20442;-82
2021/11/14 14:02:57;;;;;;;13.50;11.00;;;7.50;96.30;;;;;;5013809;28;20451;-81
2021/11/14 14:05:23;;;;;;;15.10;11.53;;;7.40;96.30;;;;;;5014164;28;20289;-81
2021/11/14 14:07:50;;;;;;;15.60;11.77;;;7.40;96.30;;;;;;5013906;28;20653;-80
2021/11/14 14:10:21;;;;;;;14.40;11.93;;;7.40;96.30;;;;;;5015597;28;20455;-81
2021/11/14 14:12:53;;;;;;;16.27;12.67;;;7.40;96.30;;;;;;5015212;28;20475;-82
2021/11/14 14:15:25;;;;;;;18.63;14.00;;;7.30;96.30;;;;;;5014382;28;20801;-81
2021/11/14 14:17:55;;;;;;;18.40;13.23;;;7.20;96.30;;;;;;5013809;28;20416;-81
2021/11/14 14:20:21;;;;;;;19.30;14.37;;;7.20;96.30;;;;;;5015167;28;20977;-80
2021/11/14 14:22:50;;;;;;;16.50;12.37;;;7.20;96.30;;;;;;5013373;28;20416;-80
2021/11/14 14:25:22;;;;;;;21.10;14.40;;;7.10;96.30;;;;;;5014590;28;20447;-80
2021/11/14 14:27:55;;;;;;;18.37;14.00;;;7.10;96.30;;;;;;5014774;28;20481;-81
2021/11/14 14:30:21;;;;;;;17.33;13.07;;;7.00;96.30;;;;;;5013736;28;20419;-81
2021/11/14 14:32:51;;;;;;;17.33;13.30;;;7.00;96.30;;;;;;5013697;28;20406;-82
2021/11/14 14:35:18;;;;;;;20.50;13.90;;;7.00;96.30;;;;;;5015441;28;20411;-81
2021/11/14 14:38:08;;;;;;;18.80;13.20;;;6.90;96.30;;;;;;5014017;28;20416;-81
2021/11/14 14:40:41;;;;;;;18.03;11.70;;;6.90;96.30;;;;;;4995585;28;20405;-81
2021/11/14 14:43:31;;;;;;;13.57;10.47;;;6.70;96.30;;;;;;4994566;28;20412;-83
2021/11/14 14:46:07;;;;;;;17.13;12.40;;;6.60;96.30;;;;;;5004437;28;20971;-81
2021/11/14 14:48:39;;;;;;;20.17;12.83;;;6.60;96.30;;;;;;5013434;28;20826;-81
2021/11/14 14:51:15;;;;;;;19.37;12.93;;;6.60;96.30;;;;;;5014262;28;20431;-82
2021/11/14 14:53:52;;;;;;;15.97;12.90;;;6.60;96.30;;;;;;5015232;28;20420;-82
2021/11/14 14:56:29;;;;;;;22.37;16.03;;;6.60;96.30;;;;;;5015216;28;20400;-82
2021/11/14 14:58:57;;;;;;;17.83;13.73;;;6.60;96.30;;;;;;4996407;28;20916;-81
2021/11/14 15:01:31;;;;;;;17.77;13.43;;;6.50;96.30;;;;;;4994103;28;20460;-82
2021/11/14 15:04:09;;;;;;;22.23;13.60;;;6.50;96.30;;;;;;4995382;28;20449;-81
2021/11/14 15:06:37;;;;;;;18.90;14.10;;;6.40;96.30;;;;;;4996306;28;20512;-81
2021/11/14 15:09:02;;;;;;;19.80;14.43;;;6.30;96.30;;;;;;4995789;28;20409;-82
2021/11/14 15:11:32;;;;;;;18.70;14.00;;;6.30;96.30;;;;;;4994436;28;20967;-81
2021/11/14 15:13:59;;;;;;;22.10;14.60;;;6.30;96.30;;;;;;4995014;28;20181;-81
2021/11/14 15:16:25;;;;;;;23.30;15.93;;;6.30;96.30;;;;;;4997007;28;20424;-81
2021/11/14 15:18:50;;;;;;;22.57;15.83;;;6.30;96.30;;;;;;4998643;28;20405;-81
2021/11/14 15:21:16;;;;;;;25.13;16.73;;;6.20;96.30;;;;;;4998071;28;20944;-82
2021/11/14 15:23:44;;;;;;;23.70;16.87;;;6.10;96.30;;;;;;4997427;28;20312;-81
2021/11/14 15:26:12;;;;;;;21.10;13.97;;;6.10;96.30;;;;;;4996077;28;20209;-82
2021/11/14 15:28:37;;;;;;;28.00;15.70;;;6.20;96.30;;;;;;4996666;28;20409;-82
2021/11/14 15:31:07;;;;;;;19.77;15.43;;;6.10;96.30;;;;;;4994317;28;20968;-82
2021/11/14 15:33:37;;;;;;;25.70;17.73;;;6.10;96.30;;;;;;4995785;28;20211;-83
2021/11/14 15:36:03;;;;;;;24.10;15.80;;;6.00;96.30;;;;;;4994554;28;20440;-82
2021/11/14 15:38:30;;;;;;;22.37;18.00;;;5.90;96.30;;;;;;4994363;28;20428;-82
2021/11/14 15:40:56;;;;;;;24.63;15.57;;;5.90;96.30;;;;;;4992826;28;20433;-82
2021/11/14 15:43:23;;;;;;;24.57;17.47;;;5.90;96.30;;;;;;4993947;28;20409;-82
2021/11/14 15:45:49;;;;;;;28.90;19.13;;;5.90;96.30;;;;;;4994283;28;21019;-82
2021/11/14 15:48:17;;;;;;;26.67;18.00;;;5.90;96.30;;;;;;4993253;28;20440;-82
2021/11/14 15:50:46;;;;;;;27.97;20.00;;;5.90;96.30;;;;;;4994311;28;20201;-83
2021/11/14 15:53:13;;;;;;;25.20;17.80;;;5.80;96.30;;;;;;4992624;28;20856;-83
2021/11/14 15:55:42;;;;;;;29.20;20.53;;;5.90;96.30;;;;;;4992882;28;20479;-82
2021/11/14 15:58:08;;;;;;;19.40;12.77;;;5.80;96.30;;;;;;4995642;28;20908;-83
2021/11/14 16:03:10;;;;;;;23.73;16.67;;;5.80;96.30;;;;;;5431633;23;20864;-82
2021/11/14 16:05:36;;;;;;;22.40;14.50;;;5.80;96.30;;;;;;4990992;28;20512;-81
2021/11/14 16:08:04;;;;;;;31.83;17.57;;;5.80;96.30;;;;;;4998898;28;20413;-81
2021/11/14 16:10:29;;;;;;;28.03;16.53;;;5.80;96.30;;;;;;4982342;28;20445;-82
2021/11/14 16:12:55;;;;;;;21.97;15.17;;;5.80;96.30;;;;;;4974985;28;20414;-83
2021/11/14 16:15:23;;;;;;;27.40;17.27;;;5.80;96.30;;;;;;4965104;28;20178;-80
2021/11/14 16:17:49;;;;;;;26.80;15.33;;;5.80;96.30;;;;;;4964568;28;20419;-81
2021/11/14 16:20:17;;;;;;;28.63;16.10;;;5.70;96.30;;;;;;4957345;28;20418;-82
2021/11/14 16:22:44;;;;;;;29.30;18.37;;;5.80;96.30;;;;;;4963429;28;20230;-81
2021/11/14 16:25:12;;;;;;;26.07;17.77;;;5.80;96.30;;;;;;4956465;28;20962;-80
2021/11/14 16:27:39;;;;;;;24.60;17.37;;;5.80;96.30;;;;;;4970838;28;20410;-81
2021/11/14 16:30:06;;;;;;;21.10;14.50;;;5.80;96.30;;;;;;4962291;28;20445;-81
2021/11/14 16:32:32;;;;;;;21.43;16.10;;;5.80;96.30;;;;;;4961815;28;21094;-82
2021/11/14 16:34:58;;;;;;;22.10;13.80;;;5.90;96.30;;;;;;4972861;28;20418;-83
2021/11/14 16:37:24;;;;;;;20.60;15.10;;;5.90;96.30;;;;;;4963227;28;20179;-81
2021/11/14 16:39:50;;;;;;;22.10;15.67;;;5.90;96.30;;;;;;4972633;28;20413;-80
2021/11/14 16:42:19;;;;;;;23.40;16.13;;;5.80;96.30;;;;;;4972657;28;20209;-81
2021/11/14 16:44:44;;;;;;;20.73;13.90;;;5.80;96.30;;;;;;4965271;28;20422;-81
2021/11/14 16:47:12;;;;;;;17.37;13.80;;;5.80;96.30;;;;;;4972149;28;20413;-80
2021/11/14 16:49:37;;;;;;;26.00;17.47;;;5.80;96.30;;;;;;4967737;28;20177;-81
2021/11/14 16:52:04;;;;;;;26.27;17.30;;;5.90;96.30;;;;;;4965899;28;20433;-81
2021/11/14 16:54:30;;;;;;;22.83;18.43;;;5.90;96.30;;;;;;4957411;28;20230;-82
2021/11/14 16:56:55;;;;;;;31.77;20.47;;;5.90;96.30;;;;;;4967691;28;20434;-83
2021/11/14 16:59:21;;;;;;;24.77;17.87;;;5.90;96.30;;;;;;4971823;28;20186;-84
2021/11/14 17:01:46;;;;;;;24.93;18.30;;;5.80;96.30;;;;;;4964202;28;20562;-83